Dades meteomassalio
Diari Summary for Febrer 6, 2018 Units:  English    Metric   Both
« Previous Day
Next Day »
Diari Semanal Mensual Anual Personalitzat
  Maxima: Minima: Mijana:
Temperatura: TemperatureC °F 1.1 °F 2.4 °F
Rosada: DewpointC °F -2.1 °F 0.9 °F
Humitat: Humidity % 76 % 90 %
Velocitat del vent: WindSpeedKMH mph 0.0 mph 16.1 mph
Racha vent: WindSpeedGustKMH mph - -
Vent:- - NW
Pressio: PressurehPa in 1010.4 in -
Pluja: 11.4 in    
Historical Graphs
 
 
Tabular Data for Febrer 6, 2018
Time Temperature Dew Point Pressure Wind Wind Speed Wind Gust Humidity Rainfall Rate (Hourly) solar Conditions
TemperatureC °F DewpointC °F PressurehPa in Calm     Humidity % HourlyPrecipMM in SolarRadiationWatts/m^2 W/m2 Conditions
00:01 3.9 °F 2.8 °F 1011.7 in NW 16.7 mph 16.7 mph 93 % 0.5 in 0.0 W/m2 RA
00:06 3.9 °F 2.8 °F 1011.7 in WNW 13.0 mph 13.0 mph 93 % 0.5 in 0.0 W/m2 CLR
00:11 3.9 °F 2.8 °F 1011.7 in NW 9.3 mph 9.3 mph 93 % 0.5 in 0.0 W/m2 RA
00:16 3.9 °F 2.8 °F 1011.7 in WNW 14.8 mph 14.8 mph 93 % 0.5 in 0.0 W/m2
00:21 3.9 °F 2.8 °F 1011.7 in NW 9.3 mph 9.3 mph 93 % 0.5 in 0.0 W/m2 CLR
00:26 3.9 °F 2.8 °F 1011.7 in NW 13.0 mph 13.0 mph 93 % 0.5 in 0.0 W/m2 CLR
00:31 3.9 °F 2.8 °F 1011.7 in Calm     93 % 0.5 in 0.0 W/m2 CLR
00:36 3.9 °F 2.8 °F 1011.7 in NW 3.7 mph 3.7 mph 93 % 0.5 in 0.0 W/m2 RA
00:41 3.9 °F 2.8 °F 1011.7 in NNW 11.1 mph 11.1 mph 93 % 0.5 in 0.0 W/m2 CLR
00:46 3.9 °F 2.8 °F 1011.7 in NNW 13.0 mph 13.0 mph 93 % 0.5 in 0.0 W/m2 CLR
00:51 3.9 °F 2.8 °F 1011.7 in NNW 11.3 mph 11.3 mph 93 % 0.5 in 0.0 W/m2 RA
00:56 3.9 °F 2.8 °F 1011.7 in NNW 1.9 mph   93 % 0.5 in 0.0 W/m2 CLR
01:01 3.9 °F 2.8 °F 1011.7 in NNW 5.6 mph 5.6 mph 93 % 0.8 in 0.0 W/m2 RA
01:06 3.9 °F 2.8 °F 1011.7 in NNW 11.1 mph 11.1 mph 93 % 0.8 in 0.0 W/m2
01:11 3.9 °F 2.8 °F 1011.7 in North 9.3 mph 9.3 mph 93 % 0.5 in 0.0 W/m2 CLR
01:16 3.9 °F 2.8 °F 1011.7 in Calm     93 % 0.8 in 0.0 W/m2 RA
01:21 3.9 °F 2.8 °F 1011.4 in Calm     93 % 0.8 in 0.0 W/m2 CLR
01:26 3.9 °F 2.8 °F 1011.4 in Calm     93 % 0.8 in 0.0 W/m2 CLR
01:31 3.9 °F 2.8 °F 1011.4 in Calm     93 % 1.0 in 0.0 W/m2 RA
01:36 3.9 °F 2.8 °F 1011.4 in Calm     93 % 0.8 in 0.0 W/m2 CLR
01:41 3.9 °F 2.8 °F 1011.4 in Calm     93 % 1.0 in 0.0 W/m2 RA
01:46 3.9 °F 2.8 °F 1011.4 in Calm     93 % 1.0 in 0.0 W/m2
01:51 3.9 °F 2.8 °F 1011.4 in Calm     93 % 1.0 in 0.0 W/m2 RA
01:56 3.9 °F 2.8 °F 1011.1 in Calm     93 % 1.3 in 0.0 W/m2 RA
02:01 3.9 °F 2.8 °F 1011.1 in NNW 14.8 mph 14.8 mph 93 % 1.0 in 0.0 W/m2
02:06 3.9 °F 2.8 °F 1011.1 in North 14.8 mph 14.8 mph 93 % 1.0 in 0.0 W/m2 CLR
02:11 3.9 °F 2.8 °F 1011.1 in NW 9.3 mph 9.3 mph 93 % 1.3 in 0.0 W/m2 RA
02:16 3.9 °F 2.8 °F 1011.1 in NNW 11.1 mph 11.1 mph 93 % 1.0 in 0.0 W/m2 CLR
02:21 3.9 °F 2.8 °F 1011.1 in Calm     93 % 1.0 in 0.0 W/m2 CLR
02:26 3.9 °F 2.8 °F 1011.1 in NW 14.8 mph 14.8 mph 93 % 1.0 in 0.0 W/m2 CLR
02:31 3.9 °F 2.8 °F 1011.1 in NNW 9.3 mph 9.3 mph 93 % 0.8 in 0.0 W/m2 CLR
02:36 3.9 °F 2.8 °F 1011.1 in NNW 11.1 mph 11.1 mph 93 % 1.0 in 0.0 W/m2 RA
02:41 3.9 °F 2.8 °F 1011.1 in NNW 11.3 mph 11.3 mph 93 % 0.8 in 0.0 W/m2 CLR
02:46 3.9 °F 2.8 °F 1011.1 in NNW 13.0 mph   93 % 1.0 in 0.0 W/m2 RA
02:51 3.9 °F 2.8 °F 1011.1 in Calm     93 % 0.8 in 0.0 W/m2 CLR
02:56 3.9 °F 2.8 °F 1011.1 in NNW 12.9 mph 12.9 mph 93 % 0.8 in 0.0 W/m2 RA
03:01 3.9 °F 2.8 °F 1011.1 in NNW 5.6 mph 5.6 mph 93 % 0.8 in 0.0 W/m2
03:06 3.9 °F 2.8 °F 1010.7 in NNW 14.8 mph 14.8 mph 93 % 1.0 in 0.0 W/m2 RA
03:11 3.9 °F 2.8 °F 1010.7 in NNW 11.1 mph 11.1 mph 93 % 1.0 in 0.0 W/m2 RA
03:16 3.9 °F 2.8 °F 1010.7 in NNW 14.8 mph 14.8 mph 93 % 1.0 in 0.0 W/m2
03:21 3.9 °F 2.8 °F 1010.7 in NNW 11.1 mph 11.1 mph 93 % 1.0 in 0.0 W/m2 CLR
03:26 3.9 °F 3.0 °F 1010.7 in NW 9.3 mph 9.3 mph 94 % 1.3 in 0.0 W/m2 RA
03:31 3.9 °F 3.0 °F 1010.7 in NNW 9.3 mph   94 % 1.3 in 0.0 W/m2 CLR
03:36 3.9 °F 3.0 °F 1010.7 in NNW 14.8 mph   94 % 1.0 in 0.0 W/m2 CLR
03:41 3.9 °F 3.0 °F 1010.4 in North 13.0 mph 13.0 mph 94 % 1.3 in 0.0 W/m2 RA
03:46 3.9 °F 3.0 °F 1010.7 in NNW 16.7 mph 16.7 mph 94 % 1.0 in 0.0 W/m2 CLR
03:51 3.9 °F 3.0 °F 1010.7 in Calm     94 % 1.0 in 0.0 W/m2 CLR
03:56 3.9 °F 3.0 °F 1010.7 in North 18.5 mph 18.5 mph 94 % 1.0 in 0.0 W/m2 RA
04:01 3.9 °F 3.0 °F 1010.7 in NW 14.8 mph 14.8 mph 94 % 1.3 in 0.0 W/m2 RA
04:06 3.9 °F 2.8 °F 1010.4 in NW 16.7 mph 16.7 mph 93 % 1.3 in 0.0 W/m2 RA
04:11 3.9 °F 2.8 °F 1010.4 in NW 22.2 mph 22.2 mph 93 % 1.3 in 0.0 W/m2 RA
04:16 3.9 °F 2.8 °F 1010.4 in NNW 16.7 mph 16.7 mph 93 % 1.5 in 0.0 W/m2 RA
04:21 3.3 °F 2.4 °F 1010.4 in NW 13.0 mph 13.0 mph 94 % 1.5 in 0.0 W/m2 RA
04:26 3.3 °F 2.3 °F 1010.4 in NNW 18.5 mph 18.5 mph 93 % 1.5 in 0.0 W/m2
04:31 3.3 °F 2.3 °F 1010.4 in NW 13.0 mph 13.0 mph 93 % 1.5 in 0.0 W/m2 RA
04:36 3.3 °F 2.3 °F 1010.4 in NW 14.8 mph 14.8 mph 93 % 1.5 in 0.0 W/m2
04:41 3.3 °F 2.3 °F 1010.4 in NW 13.0 mph 13.0 mph 93 % 1.5 in 0.0 W/m2 RA
04:46 3.3 °F 2.3 °F 1010.4 in NW 18.5 mph 18.5 mph 93 % 1.5 in 0.0 W/m2
04:51 3.3 °F 2.3 °F 1010.4 in NNW 18.5 mph 18.5 mph 93 % 1.8 in 0.0 W/m2 RA
04:56 3.3 °F 2.3 °F 1010.4 in NNW 18.5 mph 18.5 mph 93 % 1.5 in 0.0 W/m2
05:01 3.3 °F 2.3 °F 1010.4 in NNW 18.5 mph 18.5 mph 93 % 1.5 in 0.0 W/m2 RA
05:06 3.3 °F 2.3 °F 1010.4 in WNW 11.1 mph 11.1 mph 93 % 1.5 in 0.0 W/m2 CLR
05:11 2.8 °F 1.8 °F 1010.4 in NW 18.5 mph 18.5 mph 93 % 1.5 in 0.0 W/m2 RA
05:16 2.8 °F 1.8 °F 1010.4 in NW 13.0 mph 13.0 mph 93 % 1.5 in 0.0 W/m2 RA
05:21 2.8 °F 1.8 °F 1010.4 in NW 14.8 mph 14.8 mph 93 % 1.3 in 0.0 W/m2 CLR
05:27 2.8 °F 1.8 °F 1010.4 in WNW 18.5 mph 18.5 mph 93 % 1.5 in 0.0 W/m2 RA
05:32 2.8 °F 1.8 °F 1010.4 in NW 18.5 mph 18.5 mph 93 % 1.3 in 0.0 W/m2 CLR
05:37 2.8 °F 1.8 °F 1010.4 in WNW 18.5 mph 18.5 mph 93 % 1.3 in 0.0 W/m2 CLR
05:42 2.8 °F 1.8 °F 1010.4 in NW 16.7 mph 16.7 mph 93 % 1.0 in 0.0 W/m2 CLR
05:47 2.8 °F 1.8 °F 1010.4 in West 12.9 mph 12.9 mph 93 % 1.3 in 0.0 W/m2 RA
05:52 2.8 °F 1.8 °F 1010.7 in NW 5.6 mph 5.6 mph 93 % 1.0 in 0.0 W/m2 CLR
05:57 2.2 °F 1.2 °F 1010.7 in WNW 5.6 mph   93 % 1.0 in 0.0 W/m2 CLR
06:02 2.2 °F 1.2 °F 1010.7 in WNW 7.4 mph 7.4 mph 93 % 0.8 in 0.0 W/m2 CLR
06:07 2.2 °F 1.2 °F 1010.7 in Calm     93 % 0.8 in 0.0 W/m2 CLR
06:12 2.2 °F 1.2 °F 1010.7 in Calm     93 % 0.5 in 0.0 W/m2 CLR
06:17 2.2 °F 1.2 °F 1010.4 in West 3.7 mph 3.7 mph 93 % 0.5 in 0.0 W/m2 CLR
06:22 2.2 °F 1.2 °F 1010.4 in NW 14.8 mph 14.8 mph 93 % 0.5 in 0.0 W/m2 RA
06:27 2.2 °F 1.2 °F 1010.7 in NW 11.1 mph 11.1 mph 93 % 0.5 in 0.0 W/m2 CLR
06:32 2.2 °F 1.2 °F 1010.4 in WNW 14.5 mph 14.5 mph 93 % 0.5 in 0.0 W/m2 CLR
06:37 2.2 °F 1.2 °F 1010.7 in NW 14.8 mph 14.8 mph 93 % 0.5 in 0.0 W/m2 CLR
06:42 2.2 °F 1.2 °F 1010.4 in NW 20.9 mph 20.9 mph 93 % 0.5 in 0.0 W/m2 CLR
06:47 2.2 °F 1.2 °F 1010.4 in NW 22.2 mph 22.2 mph 93 % 0.3 in 0.0 W/m2 CLR
06:52 2.2 °F 1.2 °F 1010.7 in NNW 20.9 mph 20.9 mph 93 % 0.3 in 0.0 W/m2 CLR
06:57 2.2 °F 1.2 °F 1010.7 in NNW 19.3 mph 19.3 mph 93 % 0.3 in 0.0 W/m2 CLR
07:02 2.2 °F 1.2 °F 1010.7 in NW 18.5 mph 18.5 mph 93 % 0.5 in 0.0 W/m2 RA
07:07 2.2 °F 1.2 °F 1010.7 in NNW 22.2 mph 22.2 mph 93 % 0.5 in 0.0 W/m2 CLR
07:12 2.2 °F 1.2 °F 1010.7 in NW 22.2 mph 22.2 mph 93 % 0.5 in 0.0 W/m2 CLR
07:17 2.2 °F 1.2 °F 1010.7 in NW 19.3 mph 19.3 mph 93 % 0.5 in 0.0 W/m2 CLR
07:22 2.2 °F 1.2 °F 1010.7 in NW 24.1 mph 24.1 mph 93 % 0.3 in 0.0 W/m2 CLR
07:27 2.2 °F 1.2 °F 1010.7 in NW 24.1 mph 24.1 mph 93 % 0.3 in 0.0 W/m2 CLR
07:32 2.2 °F 1.2 °F 1010.7 in NW 18.5 mph 18.5 mph 93 % 0.3 in 0.0 W/m2 CLR
07:37 2.2 °F 1.2 °F 1010.7 in WNW 24.1 mph 24.1 mph 93 % 0.3 in 0.0 W/m2 CLR
07:42 2.2 °F 1.2 °F 1010.7 in NW 27.8 mph 27.8 mph 93 % 0.3 in 0.0 W/m2 CLR
07:47 2.2 °F 1.2 °F 1010.7 in NW 27.8 mph 27.8 mph 93 % 0.3 in 0.0 W/m2 CLR
07:52 2.2 °F 1.2 °F 1010.7 in NW 20.4 mph 20.4 mph 93 % 0.3 in 0.0 W/m2 CLR
07:57 2.2 °F 1.2 °F 1010.7 in NW 24.1 mph 24.1 mph 93 % 0.3 in 0.0 W/m2 CLR
08:02 2.2 °F 1.2 °F 1010.7 in NNW 25.9 mph 25.9 mph 93 % 0.0 in 0.0 W/m2 OVC
08:07 2.2 °F 1.2 °F 1011.1 in NW 24.1 mph 24.1 mph 93 % 0.0 in 0.0 W/m2 OVC
08:12 2.2 °F 1.2 °F 1011.1 in NW 22.2 mph 22.2 mph 93 % 0.3 in 0.0 W/m2 RA
08:17 2.2 °F 1.2 °F 1011.1 in NW 24.1 mph 24.1 mph 93 % 0.3 in 0.0 W/m2
08:22 1.7 °F 0.7 °F 1011.1 in NW 22.2 mph 22.2 mph 93 % 0.3 in 0.0 W/m2 CLR
08:27 1.7 °F 0.7 °F 1011.1 in NNW 22.2 mph 22.2 mph 93 % 0.3 in 0.0 W/m2 OVC
08:32 1.7 °F 0.7 °F 1011.1 in NNW 20.4 mph 20.4 mph 93 % 0.3 in 5.0 W/m2 OVC
08:37 1.7 °F 0.7 °F 1011.4 in NNW 25.9 mph 25.9 mph 93 % 0.3 in 7.0 W/m2 BKN
08:42 1.7 °F 0.7 °F 1011.4 in NNW 22.2 mph 22.2 mph 93 % 0.3 in 7.0 W/m2 BKN
08:47 1.7 °F 0.7 °F 1011.4 in NW 20.9 mph 20.9 mph 93 % 0.5 in 9.0 W/m2 RA
08:52 1.7 °F 0.7 °F 1011.4 in NNW 25.9 mph 25.9 mph 93 % 0.5 in 11.0 W/m2 BKN
08:57 1.7 °F 0.7 °F 1011.4 in North 27.8 mph 27.8 mph 93 % 0.5 in 11.0 W/m2 BKN
09:02 1.1 °F 0.1 °F 1011.4 in NNW 25.7 mph 25.7 mph 93 % 0.5 in 11.0 W/m2 BKN
09:07 1.1 °F 0.1 °F 1011.4 in NW 22.2 mph 22.2 mph 93 % 0.5 in 12.0 W/m2 BKN
09:12 1.1 °F 0.1 °F 1011.4 in NW 24.1 mph 24.1 mph 93 % 0.3 in 9.0 W/m2 BKN
09:17 1.1 °F 0.1 °F 1011.7 in NNW 20.4 mph 20.4 mph 93 % 0.5 in 9.0 W/m2 RA
09:22 1.1 °F 0.1 °F 1011.7 in NNW 25.9 mph 25.9 mph 93 % 0.5 in 9.0 W/m2 BKN
09:27 1.1 °F 0.1 °F 1011.7 in NW 25.9 mph 25.9 mph 93 % 0.5 in 9.0 W/m2 BKN
09:32 1.1 °F 0.1 °F 1011.7 in NW 22.2 mph 22.2 mph 93 % 0.5 in 9.0 W/m2 BKN
09:37 1.1 °F 0.1 °F 1011.7 in NNW 24.1 mph 24.1 mph 93 % 0.5 in 12.0 W/m2 BKN
09:42 1.1 °F 0.1 °F 1011.7 in NW 24.1 mph 24.1 mph 93 % 0.5 in 16.0 W/m2 BKN
09:47 1.1 °F 0.1 °F 1011.7 in NNW 20.4 mph 20.4 mph 93 % 0.3 in 21.0 W/m2 BKN
09:52 1.1 °F 0.1 °F 1012.1 in NW 18.5 mph 18.5 mph 93 % 0.3 in 21.0 W/m2 BKN
09:57 1.1 °F 0.1 °F 1012.1 in NW 30.6 mph 30.6 mph 93 % 0.5 in 23.0 W/m2 RA
10:02 1.1 °F 0.1 °F 1012.1 in NW 16.7 mph 16.7 mph 93 % 0.5 in 28.0 W/m2 BKN
10:07 1.1 °F 0.1 °F 1012.4 in NW 16.7 mph 16.7 mph 93 % 0.5 in 40.0 W/m2 BKN
10:12 1.1 °F 0.1 °F 1012.4 in WNW 18.5 mph 18.5 mph 93 % 0.5 in 46.0 W/m2 BKN
10:17 1.1 °F 0.1 °F 1012.4 in NW 18.5 mph 18.5 mph 93 % 0.3 in 40.0 W/m2 BKN
10:22 1.1 °F 0.1 °F 1012.4 in NW 20.4 mph 20.4 mph 93 % 0.3 in 44.0 W/m2 BKN
10:27 1.1 °F 0.1 °F 1012.4 in NW 18.5 mph 18.5 mph 93 % 0.5 in 58.0 W/m2 RA
10:33 1.1 °F 0.1 °F 1012.4 in NW 22.5 mph 22.5 mph 93 % 0.5 in 72.0 W/m2 SCT
10:38 1.1 °F 0.1 °F 1012.4 in WNW 22.5 mph 22.5 mph 93 % 0.5 in 58.0 W/m2 FEW
10:42 1.1 °F 0.1 °F 1012.8 in NW 24.1 mph 24.1 mph 93 % 0.5 in 49.0 W/m2 SCT
10:48 1.1 °F 0.1 °F 1012.8 in WNW 14.5 mph 14.5 mph 93 % 0.5 in 51.0 W/m2 SCT
10:52 1.1 °F 0.3 °F 1012.8 in NW 16.7 mph 16.7 mph 94 % 0.5 in 49.0 W/m2 SCT
10:58 1.1 °F 0.3 °F 1013.1 in WNW 18.5 mph 18.5 mph 94 % 0.5 in 56.0 W/m2 RA
11:03 1.1 °F 0.3 °F 1013.1 in WNW 14.8 mph 14.8 mph 94 % 0.5 in 63.0 W/m2 SCT
11:08 1.1 °F 0.3 °F 1013.1 in WNW 13.0 mph 13.0 mph 94 % 0.5 in 62.0 W/m2 SCT
11:13 1.1 °F 0.3 °F 1013.1 in WNW 18.5 mph 18.5 mph 94 % 0.5 in 81.0 W/m2 FEW
11:18 1.1 °F 0.3 °F 1013.1 in WNW 16.7 mph 16.7 mph 94 % 0.5 in 91.0 W/m2 RA
11:23 1.1 °F 0.3 °F 1013.1 in WNW 16.7 mph 16.7 mph 94 % 0.5 in 95.0 W/m2 CLR
11:28 1.1 °F 0.3 °F 1013.1 in WNW 24.1 mph 24.1 mph 94 % 0.5 in 77.0 W/m2 CLR
11:33 1.1 °F 0.3 °F 1013.4 in NW 18.5 mph 18.5 mph 94 % 0.5 in 56.0 W/m2 FEW
11:38 1.1 °F 0.3 °F 1013.4 in NW 18.5 mph 18.5 mph 94 % 0.5 in 63.0 W/m2 SCT
11:43 1.1 °F 0.3 °F 1013.4 in WNW 22.2 mph 22.2 mph 94 % 0.5 in 84.0 W/m2 FEW
11:48 1.1 °F 0.3 °F 1013.4 in NW 16.7 mph 16.7 mph 94 % 0.8 in 90.0 W/m2 RA
11:53 1.1 °F 0.3 °F 1013.4 in NW 18.5 mph 18.5 mph 94 % 0.8 in 100.0 W/m2 CLR
11:58 1.1 °F 0.3 °F 1013.4 in NW 16.1 mph 16.1 mph 94 % 0.5 in 114.0 W/m2 CLR
12:03 1.1 °F 0.3 °F 1013.4 in NW 20.4 mph 20.4 mph 94 % 0.5 in 127.0 W/m2 CLR
12:08 1.1 °F 0.3 °F 1013.4 in NW 20.4 mph 20.4 mph 94 % 0.8 in 132.0 W/m2 RA
12:13 1.1 °F 0.3 °F 1013.4 in NW 22.5 mph 22.5 mph 94 % 0.8 in 134.0 W/m2 CLR
12:18 1.7 °F 0.7 °F 1013.4 in NW 25.9 mph 25.9 mph 93 % 0.8 in 153.0 W/m2 RA
12:23 1.7 °F 0.7 °F 1013.4 in WNW 20.4 mph 20.4 mph 93 % 0.8 in 146.0 W/m2 CLR
12:28 1.7 °F 0.7 °F 1013.4 in WNW 18.5 mph 18.5 mph 93 % 0.5 in 162.0 W/m2 CLR
12:33 1.7 °F 0.7 °F 1013.4 in NW 20.4 mph 20.4 mph 93 % 0.8 in 153.0 W/m2 RA
12:38 1.7 °F 0.7 °F 1013.1 in NW 16.7 mph 16.7 mph 93 % 0.8 in 142.0 W/m2 CLR
12:43 1.7 °F 0.8 °F 1013.1 in NW 24.1 mph 24.1 mph 94 % 0.8 in 156.0 W/m2 CLR
12:48 1.7 °F 0.7 °F 1013.1 in NNW 20.4 mph 20.4 mph 93 % 0.8 in 142.0 W/m2 RA
12:53 1.7 °F 0.7 °F 1013.1 in NNW 33.3 mph 33.3 mph 93 % 0.8 in 125.0 W/m2 CLR
12:58 1.7 °F 0.7 °F 1013.1 in NW 29.6 mph 29.6 mph 93 % 1.0 in 109.0 W/m2 RA
13:03 1.7 °F 0.7 °F 1013.1 in NW 17.7 mph 17.7 mph 93 % 1.0 in 104.0 W/m2 CLR
13:08 1.7 °F 0.7 °F 1012.8 in NNW 16.7 mph 16.7 mph 93 % 0.8 in 102.0 W/m2 CLR
13:13 1.7 °F 0.7 °F 1012.8 in NW 22.5 mph 22.5 mph 93 % 0.8 in 88.0 W/m2 CLR
13:18 1.7 °F 0.7 °F 1013.1 in NW 18.5 mph 18.5 mph 93 % 0.5 in 69.0 W/m2 FEW
13:23 1.7 °F 0.7 °F 1013.1 in NW 24.1 mph 24.1 mph 93 % 0.8 in 77.0 W/m2 RA
13:28 1.7 °F 0.7 °F 1012.8 in WNW 18.5 mph 18.5 mph 93 % 0.8 in 67.0 W/m2 FEW
13:33 1.7 °F 0.7 °F 1012.8 in WNW 24.1 mph 24.1 mph 93 % 0.5 in 58.0 W/m2 FEW
13:38 1.7 °F 0.7 °F 1012.8 in NW 20.4 mph 20.4 mph 93 % 0.5 in 72.0 W/m2 SCT
13:43 1.7 °F 0.7 °F 1012.8 in WNW 18.5 mph 18.5 mph 93 % 0.5 in 81.0 W/m2 FEW
13:48 1.7 °F 0.7 °F 1012.8 in NW 18.5 mph 18.5 mph 93 % 0.5 in 97.0 W/m2 RA
13:53 1.7 °F 0.7 °F 1012.8 in West 24.1 mph 24.1 mph 93 % 0.5 in 98.0 W/m2 CLR
13:58 1.7 °F 0.7 °F 1012.4 in WNW 22.2 mph 22.2 mph 93 % 0.5 in 134.0 W/m2 CLR
14:03 1.7 °F 0.7 °F 1012.8 in WNW 18.5 mph 18.5 mph 93 % 0.5 in 142.0 W/m2 CLR
14:08 1.7 °F 0.7 °F 1012.8 in NW 29.6 mph 29.6 mph 93 % 0.5 in 132.0 W/m2 CLR
14:13 1.7 °F 0.7 °F 1012.4 in NW 20.4 mph 20.4 mph 93 % 0.5 in 123.0 W/m2 CLR
14:18 1.7 °F 0.7 °F 1012.4 in WNW 22.2 mph 22.2 mph 93 % 0.5 in 111.0 W/m2 CLR
14:23 1.7 °F 0.7 °F 1012.4 in WNW 20.4 mph 20.4 mph 93 % 0.3 in 102.0 W/m2 CLR
14:28 1.7 °F 0.7 °F 1012.4 in WNW 24.1 mph 24.1 mph 93 % 0.5 in 100.0 W/m2 RA
14:33 1.7 °F 0.7 °F 1012.4 in NW 24.1 mph 24.1 mph 93 % 0.5 in 100.0 W/m2 CLR
14:38 1.7 °F 0.7 °F 1012.4 in NW 27.8 mph 27.8 mph 93 % 0.5 in 100.0 W/m2 CLR
14:43 1.7 °F 0.7 °F 1012.4 in NW 16.1 mph 16.1 mph 93 % 0.5 in 105.0 W/m2 CLR
14:48 1.7 °F 0.5 °F 1012.4 in West 18.5 mph 18.5 mph 92 % 0.3 in 102.0 W/m2 CLR
14:53 1.7 °F 0.5 °F 1012.4 in WNW 18.5 mph 18.5 mph 92 % 0.3 in 100.0 W/m2 CLR
14:58 1.7 °F 0.5 °F 1012.4 in WNW 25.9 mph 25.9 mph 92 % 0.5 in 98.0 W/m2 RA
15:03 1.7 °F 0.5 °F 1012.4 in WNW 22.2 mph 22.2 mph 92 % 0.5 in 97.0 W/m2 CLR
15:08 1.7 °F 0.5 °F 1012.4 in WNW 20.4 mph 20.4 mph 92 % 0.5 in 93.0 W/m2 CLR
15:13 1.7 °F 0.5 °F 1012.4 in WNW 24.1 mph 24.1 mph 92 % 0.5 in 91.0 W/m2 CLR
15:18 1.7 °F 0.5 °F 1012.1 in WNW 24.1 mph 24.1 mph 92 % 0.5 in 90.0 W/m2 CLR
15:23 1.7 °F 0.5 °F 1012.4 in WNW 29.6 mph 29.6 mph 92 % 0.5 in 88.0 W/m2 RA
15:28 1.7 °F 0.5 °F 1012.1 in NW 20.4 mph 20.4 mph 92 % 0.5 in 95.0 W/m2 CLR
15:33 1.7 °F 0.5 °F 1012.4 in NW 20.9 mph 20.9 mph 92 % 0.5 in 102.0 W/m2 CLR
15:38 1.7 °F 0.5 °F 1012.4 in WNW 18.5 mph 18.5 mph 92 % 0.5 in 105.0 W/m2 CLR
15:43 1.7 °F 0.5 °F 1012.4 in WNW 18.5 mph 18.5 mph 92 % 0.5 in 102.0 W/m2 RA
15:48 1.7 °F 0.5 °F 1012.4 in WNW 22.2 mph 22.2 mph 92 % 0.5 in 97.0 W/m2 CLR
15:53 1.7 °F 0.5 °F 1012.4 in West 14.8 mph 14.8 mph 92 % 0.5 in 100.0 W/m2 CLR
15:58 1.7 °F 0.5 °F 1012.4 in WNW 14.8 mph 14.8 mph 92 % 0.5 in 95.0 W/m2 RA
16:03 1.7 °F 0.5 °F 1012.4 in West 16.7 mph 16.7 mph 92 % 0.5 in 79.0 W/m2 CLR
16:08 1.7 °F 0.5 °F 1012.4 in West 18.5 mph 18.5 mph 92 % 0.5 in 67.0 W/m2 FEW
16:13 1.7 °F 0.5 °F 1012.4 in WNW 18.5 mph 18.5 mph 92 % 0.5 in 56.0 W/m2 FEW
16:18 1.7 °F 0.5 °F 1012.4 in West 16.1 mph 16.1 mph 92 % 0.5 in 51.0 W/m2 SCT
16:23 1.7 °F 0.5 °F 1012.4 in WNW 11.1 mph 11.1 mph 92 % 0.5 in 47.0 W/m2 RA
16:28 1.7 °F 0.5 °F 1012.4 in WNW 16.7 mph 16.7 mph 92 % 0.5 in 44.0 W/m2 SCT
16:33 1.7 °F 0.5 °F 1012.4 in WNW 14.8 mph 14.8 mph 92 % 0.5 in 40.0 W/m2 BKN
16:38 1.7 °F 0.5 °F 1012.4 in West 14.8 mph 14.8 mph 92 % 0.5 in 37.0 W/m2 BKN
16:44 1.7 °F 0.5 °F 1012.4 in WNW 18.5 mph 18.5 mph 92 % 0.5 in 35.0 W/m2 BKN
16:49 1.7 °F 0.5 °F 1012.4 in WSW 11.1 mph 11.1 mph 92 % 0.5 in 33.0 W/m2 BKN
16:54 1.7 °F 0.5 °F 1012.4 in West 5.6 mph 5.6 mph 92 % 0.5 in 30.0 W/m2 BKN
16:59 1.7 °F 0.5 °F 1012.4 in WSW 5.6 mph 5.6 mph 92 % 0.3 in 26.0 W/m2 BKN
17:04 1.7 °F 0.5 °F 1012.4 in Calm     92 % 0.3 in 25.0 W/m2 BKN
17:09 1.7 °F 0.5 °F 1012.4 in WSW 6.4 mph 6.4 mph 92 % 0.3 in 23.0 W/m2 BKN
17:14 1.7 °F 0.5 °F 1012.4 in Calm     92 % 0.5 in 21.0 W/m2 RA
17:19 1.7 °F 0.5 °F 1012.4 in Calm     92 % 0.5 in 19.0 W/m2 BKN
17:24 2.2 °F 1.1 °F 1012.4 in Calm     92 % 0.3 in 18.0 W/m2 BKN
17:29 2.2 °F 0.9 °F 1012.4 in WSW 5.6 mph 5.6 mph 91 % 0.3 in 16.0 W/m2 BKN
17:34 2.2 °F 0.9 °F 1012.4 in Calm     91 % 0.3 in 16.0 W/m2 BKN
17:39 2.2 °F 0.9 °F 1012.4 in WSW 5.6 mph 5.6 mph 91 % 0.3 in 12.0 W/m2 BKN
17:44 2.2 °F 0.9 °F 1012.4 in WSW 7.4 mph 7.4 mph 91 % 0.3 in 11.0 W/m2 BKN
17:49 2.2 °F 0.9 °F 1012.4 in WSW 11.3 mph 11.3 mph 91 % 0.3 in 9.0 W/m2 BKN
17:54 2.2 °F 0.8 °F 1012.4 in WSW 14.8 mph 14.8 mph 90 % 0.3 in 9.0 W/m2 BKN
17:59 2.2 °F 0.8 °F 1012.4 in WSW 12.9 mph 12.9 mph 90 % 0.3 in 7.0 W/m2 BKN
18:04 2.2 °F 0.8 °F 1012.4 in WSW 7.4 mph 7.4 mph 90 % 0.3 in 5.0 W/m2 OVC
18:09 2.2 °F 0.8 °F 1012.4 in West 12.9 mph 12.9 mph 90 % 0.3 in 5.0 W/m2 OVC
18:14 2.2 °F 0.8 °F 1012.4 in WSW 13.0 mph 13.0 mph 90 % 0.0 in 0.0 W/m2 OVC
18:19 2.2 °F 0.8 °F 1012.4 in West 14.8 mph 14.8 mph 90 % 0.0 in 0.0 W/m2 OVC
18:24 2.2 °F 0.8 °F 1012.4 in West 11.3 mph 11.3 mph 90 % 0.0 in 0.0 W/m2 OVC
18:29 2.2 °F 0.8 °F 1012.4 in West 12.9 mph 12.9 mph 90 % 0.0 in 0.0 W/m2 OVC
18:34 2.2 °F 0.8 °F 1012.4 in West 9.7 mph 9.7 mph 90 % 0.0 in 0.0 W/m2 CLR
18:39 2.2 °F 0.6 °F 1012.4 in West 16.7 mph 16.7 mph 89 % 0.0 in 0.0 W/m2 CLR
18:44 2.2 °F 0.6 °F 1012.8 in West 18.5 mph 18.5 mph 89 % 0.0 in 0.0 W/m2 CLR
18:49 2.2 °F 0.4 °F 1012.8 in West 11.1 mph 11.1 mph 88 % 0.0 in 0.0 W/m2 CLR
18:54 2.2 °F 0.4 °F 1012.8 in WNW 11.1 mph 11.1 mph 88 % 0.0 in 0.0 W/m2 CLR
18:59 2.8 °F 1.0 °F 1012.8 in WSW 14.8 mph 14.8 mph 88 % 0.0 in 0.0 W/m2 CLR
19:04 2.8 °F 0.8 °F 1012.8 in West 11.1 mph 11.1 mph 87 % 0.0 in 0.0 W/m2 CLR
19:09 2.8 °F 0.8 °F 1012.8 in WNW 14.8 mph 14.8 mph 87 % 0.3 in 0.0 W/m2 RA
19:10 2.8 °F 0.8 °F 1012.8 in West 14.8 mph 14.8 mph 87 % 0.3 in 0.0 W/m2 RA
19:15 2.8 °F 0.7 °F 1013.1 in West 18.5 mph 18.5 mph 86 % 0.3 in 0.0 W/m2
19:20 2.8 °F 0.7 °F 1013.1 in WNW 13.0 mph 13.0 mph 86 % 0.3 in 0.0 W/m2 CLR
19:25 2.8 °F 0.5 °F 1013.1 in West 5.6 mph 5.6 mph 85 % 0.3 in 0.0 W/m2 CLR
19:30 2.8 °F 0.5 °F 1013.1 in WNW 7.4 mph 7.4 mph 85 % 0.3 in 0.0 W/m2 CLR
19:35 2.8 °F 0.5 °F 1013.1 in WNW 13.0 mph 13.0 mph 85 % 0.3 in 0.0 W/m2 CLR
19:40 2.8 °F 0.5 °F 1013.1 in WNW 11.1 mph 11.1 mph 85 % 0.3 in 0.0 W/m2 CLR
19:45 2.8 °F 0.5 °F 1013.1 in WNW 6.4 mph 6.4 mph 85 % 0.3 in 0.0 W/m2 CLR
19:50 2.8 °F 0.5 °F 1013.4 in West 11.3 mph 11.3 mph 85 % 0.3 in 0.0 W/m2 CLR
19:55 2.8 °F 0.5 °F 1013.4 in WNW 7.4 mph 7.4 mph 85 % 0.3 in 0.0 W/m2 CLR
20:00 2.8 °F 0.5 °F 1013.4 in West 8.0 mph 12.2 mph 85 % 0.3 in 0.0 W/m2 CLR
20:05 2.8 °F 0.3 °F 1013.4 in NW 14.8 mph 14.8 mph 84 % 0.3 in 0.0 W/m2 CLR
20:10 2.8 °F 0.3 °F 1013.4 in West 11.1 mph 11.1 mph 84 % 0.0 in 0.0 W/m2 CLR
20:15 2.8 °F 0.3 °F 1013.4 in West 11.3 mph 11.3 mph 84 % 0.0 in 0.0 W/m2 CLR
20:20 2.8 °F 0.3 °F 1013.4 in West 12.9 mph 12.9 mph 84 % 0.0 in 0.0 W/m2 CLR
20:25 2.8 °F 0.2 °F 1013.8 in WSW 7.4 mph 7.4 mph 83 % 0.0 in 0.0 W/m2 CLR
20:30 2.8 °F 0.2 °F 1013.8 in WNW 18.5 mph 18.5 mph 83 % 0.0 in 0.0 W/m2 CLR
20:35 2.8 °F 0.0 °F 1013.8 in West 18.5 mph 18.5 mph 82 % 0.0 in 0.0 W/m2 CLR
20:40 2.8 °F 0.0 °F 1013.8 in NW 13.0 mph 13.0 mph 82 % 0.0 in 0.0 W/m2 CLR
20:45 2.8 °F 0.0 °F 1013.8 in WNW 13.0 mph 13.0 mph 82 % 0.0 in 0.0 W/m2 CLR
20:50 2.8 °F -0.2 °F 1013.8 in WNW 20.4 mph 20.4 mph 81 % 0.0 in 0.0 W/m2 CLR
20:55 2.8 °F -0.3 °F 1013.8 in WNW 27.8 mph 27.8 mph 80 % 0.0 in 0.0 W/m2 CLR
21:00 2.8 °F -0.3 °F 1013.8 in NW 16.7 mph 16.7 mph 80 % 0.0 in 0.0 W/m2 CLR
21:05 2.8 °F -0.3 °F 1013.8 in NW 24.1 mph 24.1 mph 80 % 0.0 in 0.0 W/m2 CLR
21:10 2.8 °F -0.3 °F 1014.1 in NW 20.4 mph 20.4 mph 80 % 0.0 in 0.0 W/m2 CLR
21:15 2.8 °F -0.5 °F 1014.1 in WNW 16.7 mph 16.7 mph 79 % 0.0 in 0.0 W/m2 CLR
21:20 2.8 °F -0.5 °F 1014.1 in WNW 22.5 mph 22.5 mph 79 % 0.0 in 0.0 W/m2 CLR
21:25 2.8 °F -0.5 °F 1014.1 in NW 18.5 mph 18.5 mph 79 % 0.0 in 0.0 W/m2 CLR
21:30 2.8 °F -0.5 °F 1014.1 in WNW 20.4 mph 20.4 mph 79 % 0.0 in 0.0 W/m2 CLR
21:35 2.8 °F -0.7 °F 1014.1 in WNW 24.1 mph 24.1 mph 78 % 0.0 in 0.0 W/m2 CLR
21:40 2.8 °F -0.7 °F 1014.1 in NW 18.5 mph 18.5 mph 78 % 0.0 in 0.0 W/m2 CLR
21:45 2.8 °F -0.7 °F 1014.1 in NW 29.6 mph 29.6 mph 78 % 0.0 in 0.0 W/m2 CLR
21:50 2.8 °F -0.7 °F 1014.1 in WNW 20.9 mph 20.9 mph 78 % 0.0 in 0.0 W/m2 CLR
21:55 2.8 °F -0.5 °F 1014.1 in NNW 24.1 mph 24.1 mph 79 % 0.0 in 0.0 W/m2 CLR
22:00 2.8 °F -0.5 °F 1014.1 in WNW 18.5 mph 18.5 mph 79 % 0.0 in 0.0 W/m2 CLR
22:05 2.8 °F -0.5 °F 1014.1 in NW 18.5 mph 18.5 mph 79 % 0.0 in 0.0 W/m2 CLR
22:10 2.8 °F -0.5 °F 1014.1 in NW 24.1 mph 24.1 mph 79 % 0.0 in 0.0 W/m2 CLR
22:15 2.8 °F -0.5 °F 1014.1 in WNW 18.5 mph 18.5 mph 79 % 0.0 in 0.0 W/m2 CLR
22:20 2.8 °F -0.5 °F 1014.1 in NW 18.5 mph 18.5 mph 79 % 0.0 in 0.0 W/m2 CLR
22:25 2.8 °F -0.5 °F 1014.1 in NW 16.1 mph 16.1 mph 79 % 0.0 in 0.0 W/m2 CLR
22:30 2.8 °F -0.5 °F 1014.4 in NW 22.2 mph 22.2 mph 79 % 0.0 in 0.0 W/m2 CLR
22:35 2.8 °F -0.5 °F 1014.1 in WNW 16.7 mph 16.7 mph 79 % 0.0 in 0.0 W/m2 CLR
22:40 2.8 °F -0.5 °F 1014.1 in NW 24.1 mph 24.1 mph 79 % 0.0 in 0.0 W/m2 CLR
22:45 2.8 °F -0.5 °F 1014.4 in WNW 14.5 mph 14.5 mph 79 % 0.0 in 0.0 W/m2 CLR
22:50 2.8 °F -0.5 °F 1014.4 in NW 24.1 mph 24.1 mph 79 % 0.0 in 0.0 W/m2 CLR
22:55 2.8 °F -0.7 °F 1014.4 in NW 24.1 mph 24.1 mph 78 % 0.0 in 0.0 W/m2 CLR
23:00 2.2 °F -1.2 °F 1014.4 in WNW 14.8 mph 14.8 mph 78 % 0.0 in 0.0 W/m2 CLR
23:05 2.2 °F -1.2 °F 1014.4 in WNW 19.3 mph 19.3 mph 78 % 0.0 in 0.0 W/m2 CLR
23:10 2.2 °F -1.2 °F 1014.4 in WNW 18.5 mph 18.5 mph 78 % 0.0 in 0.0 W/m2 CLR
23:15 2.2 °F -1.2 °F 1014.4 in NW 16.7 mph 16.7 mph 78 % 0.0 in 0.0 W/m2 CLR
23:20 2.2 °F -1.2 °F 1014.4 in West 18.5 mph 18.5 mph 78 % 0.0 in 0.0 W/m2 CLR
23:25 2.2 °F -1.2 °F 1014.4 in NW 18.5 mph 18.5 mph 78 % 0.0 in 0.0 W/m2 CLR
23:30 1.7 °F -1.9 °F 1014.4 in NW 22.2 mph 22.2 mph 77 % 0.0 in 0.0 W/m2 CLR
23:35 1.7 °F -1.9 °F 1014.4 in West 20.4 mph 20.4 mph 77 % 0.0 in 0.0 W/m2 CLR
23:40 1.7 °F -2.1 °F 1014.4 in NW 22.2 mph 22.2 mph 76 % 0.0 in 0.0 W/m2 CLR
23:45 1.7 °F -2.1 °F 1014.4 in WNW 20.4 mph 20.4 mph 76 % 0.0 in 0.0 W/m2 CLR
23:50 1.7 °F -2.1 °F 1014.4 in WNW 18.5 mph 18.5 mph 76 % 0.0 in 0.0 W/m2 CLR
23:55 1.7 °F -2.1 °F 1014.4 in West 11.1 mph 11.1 mph 76 % 0.0 in 0.0 W/m2 CLR
Lo Temps de Massalio
Compliments of Weather Underground - 1.25 mb